Time;durP1;ratioP1;P1;durP2;ratioP2;P2;SDS_P1;SDS_P2;PMS_P1;PMS_P2;Temp;Humidity;BMP_temperature;BMP_pressure;BME280_temperature;BME280_humidity;BME280_pressure;Samples;Min_cycle;Max_cycle;Signal;HPM_P1;HPM_P2
2022/07/12 00:01:27;;;;;;;36.53;22.20;;;;;;;16.34;84.46;102234.16;5348695;27;20031;-75
2022/07/12 00:03:58;;;;;;;74.47;45.90;;;;;;;16.32;84.80;102231.56;5346370;27;20031;-75
2022/07/12 00:06:30;;;;;;;63.50;38.80;;;;;;;16.40;84.50;102234.09;5346909;27;20039;-74
2022/07/12 00:09:01;;;;;;;10.13;7.00;;;;;;;16.33;85.29;102235.94;5348195;27;20031;-73
2022/07/12 00:11:35;;;;;;;9.30;5.68;;;;;;;16.31;84.59;102227.22;5348568;27;20046;-75
2022/07/12 00:14:06;;;;;;;6.55;4.38;;;;;;;16.29;85.16;102223.69;5348280;27;20068;-76
2022/07/12 00:16:38;;;;;;;5.60;4.23;;;;;;;16.09;85.77;102221.34;5348268;27;20133;-75
2022/07/12 00:19:09;;;;;;;61.57;45.47;;;;;;;16.00;85.93;102219.72;5348430;27;20462;-74
2022/07/12 00:21:40;;;;;;;21.53;15.30;;;;;;;15.99;86.15;102215.34;5348167;27;20031;-74
2022/07/12 00:24:12;;;;;;;20.43;15.27;;;;;;;15.92;86.41;102212.78;5347899;27;20031;-74
2022/07/12 00:26:43;;;;;;;11.87;9.37;;;;;;;15.83;86.93;102214.66;5347424;27;20114;-75
2022/07/12 00:29:14;;;;;;;17.73;13.00;;;;;;;15.75;87.03;102227.00;5347455;27;20039;-75
2022/07/12 00:31:46;;;;;;;12.90;8.93;;;;;;;15.75;87.33;102224.34;5347844;27;20042;-75
2022/07/12 00:34:17;;;;;;;7.17;5.33;;;;;;;15.71;87.50;102225.28;5346219;27;20401;-74
2022/07/12 00:36:49;;;;;;;5.93;4.27;;;;;;;15.69;87.68;102227.91;5346829;27;20492;-75
2022/07/12 00:39:20;;;;;;;5.67;4.67;;;;;;;15.66;88.02;102219.19;5347715;27;20034;-75
2022/07/12 00:41:51;;;;;;;5.27;4.77;;;;;;;15.77;87.59;102230.50;5347525;27;20027;-75
2022/07/12 00:44:23;;;;;;;4.70;4.17;;;;;;;15.74;87.68;102219.97;5348299;27;20470;-74
2022/07/12 00:46:55;;;;;;;4.37;3.53;;;;;;;15.81;87.72;102218.19;5348234;27;20027;-75
2022/07/12 00:49:27;;;;;;;4.32;3.90;;;;;;;15.70;88.06;102223.56;5346606;27;20023;-74
2022/07/12 00:52:00;;;;;;;8.05;3.55;;;;;;;15.74;88.36;102221.75;5347366;27;20042;-74
2022/07/12 00:54:32;;;;;;;6.88;3.95;;;;;;;15.71;88.63;102216.53;5346144;27;20084;-75
2022/07/12 00:57:04;;;;;;;6.13;4.30;;;;;;;15.71;87.65;102222.63;5347323;27;20039;-74
2022/07/12 00:59:35;;;;;;;11.83;10.30;;;;;;;15.61;88.26;102214.00;5346904;27;20081;-75
2022/07/12 01:02:07;;;;;;;11.70;8.47;;;;;;;15.63;87.96;102214.88;5346934;27;20066;-73
2022/07/12 01:04:38;;;;;;;10.70;7.57;;;;;;;15.55;88.30;102219.31;5346537;27;20143;-75
2022/07/12 01:07:10;;;;;;;14.30;12.10;;;;;;;15.58;88.36;102219.28;5346803;27;20097;-74
2022/07/12 01:09:41;;;;;;;31.83;25.20;;;;;;;15.49;88.73;102217.63;5346934;27;20132;-74
2022/07/12 01:12:13;;;;;;;31.17;22.90;;;;;;;15.42;88.39;102221.22;5345619;27;20042;-74
2022/07/12 01:14:44;;;;;;;26.83;18.97;;;;;;;15.45;88.75;102220.31;5345646;27;20035;-74
2022/07/12 01:17:27;;;;;;;9.93;7.25;;;;;;;15.53;88.72;102225.47;5346657;27;20095;-74
2022/07/12 01:20:00;;;;;;;10.93;6.22;;;;;;;15.41;89.19;102223.88;5346884;27;20522;-74
2022/07/12 01:22:34;;;;;;;8.27;5.90;;;;;;;15.33;89.04;102218.69;5347414;27;20035;-76
2022/07/12 01:25:07;;;;;;;21.40;16.48;;;;;;;15.39;88.89;102217.72;5358072;27;20027;-75
2022/07/12 01:27:38;;;;;;;23.23;18.75;;;;;;;15.19;89.20;102228.44;5348690;27;20137;-75
2022/07/12 01:30:10;;;;;;;10.50;7.30;;;;;;;15.15;89.67;102235.47;5347285;27;20034;-75
2022/07/12 01:32:42;;;;;;;10.35;7.32;;;;;;;15.14;89.79;102231.09;5345625;27;20269;-76
2022/07/12 01:35:14;;;;;;;10.38;6.80;;;;;;;15.20;89.66;102231.06;5346129;27;20130;-75
2022/07/12 01:37:45;;;;;;;6.20;4.80;;;;;;;15.10;89.48;102234.63;5346413;27;20466;-75
2022/07/12 01:40:17;;;;;;;5.33;4.10;;;;;;;14.94;90.04;102229.50;5346292;27;20084;-74
2022/07/12 01:42:49;;;;;;;6.07;4.20;;;;;;;14.90;89.90;102235.66;5346550;27;20038;-75
2022/07/12 01:45:20;;;;;;;6.57;4.43;;;;;;;14.85;90.02;102232.22;5346505;27;20020;-75
2022/07/12 01:47:52;;;;;;;4.47;3.70;;;;;;;14.84;89.92;102232.22;5346413;27;20023;-75
2022/07/12 01:50:23;;;;;;;6.43;4.20;;;;;;;14.86;89.91;102227.81;5346223;27;20035;-75
2022/07/12 01:52:55;;;;;;;6.47;4.80;;;;;;;14.89;89.98;102222.53;5346335;27;20063;-75
2022/07/12 01:55:27;;;;;;;11.30;4.90;;;;;;;14.91;90.05;102226.91;5346489;27;20031;-75
2022/07/12 01:57:58;;;;;;;7.00;5.00;;;;;;;14.86;90.25;102223.47;5346546;27;20050;-75
2022/07/12 02:00:31;;;;;;;7.13;5.17;;;;;;;14.60;91.02;102223.63;5346725;27;20042;-75
2022/07/12 02:03:02;;;;;;;6.40;5.25;;;;;;;14.71;91.10;102227.03;5346062;27;20031;-75
2022/07/12 02:05:34;;;;;;;6.63;4.30;;;;;;;14.63;90.54;102212.25;5346106;27;20469;-74
2022/07/12 02:08:06;;;;;;;5.65;4.45;;;;;;;14.61;91.11;102221.88;5346809;28;20028;-74
2022/07/12 02:10:37;;;;;;;5.67;3.73;;;;;;;14.61;90.40;102219.25;5346417;27;20030;-74
2022/07/12 02:13:10;;;;;;;6.50;4.13;;;;;;;14.44;90.42;102224.56;5344622;28;20042;-74
2022/07/12 02:15:41;;;;;;;5.82;4.00;;;;;;;14.47;90.59;102224.56;5344549;28;20454;-74
2022/07/12 02:18:12;;;;;;;6.87;3.90;;;;;;;14.37;90.73;102229.84;5344626;28;20088;-75
2022/07/12 02:20:44;;;;;;;5.50;3.93;;;;;;;14.35;90.67;102213.25;5345735;27;20040;-75
2022/07/12 02:23:15;;;;;;;6.20;4.10;;;;;;;14.19;90.90;102219.47;5346109;27;20032;-75
2022/07/12 02:25:47;;;;;;;5.47;3.70;;;;;;;14.33;90.98;102220.28;5345534;27;20034;-75
2022/07/12 02:28:18;;;;;;;6.20;3.73;;;;;;;14.21;91.14;102215.06;5345573;27;20047;-74
2022/07/12 02:30:49;;;;;;;6.00;4.00;;;;;;;14.22;91.44;102214.22;5344705;28;20019;-75
2022/07/12 02:33:21;;;;;;;6.50;4.60;;;;;;;14.16;91.20;102222.09;5327615;28;20058;-74
2022/07/12 02:35:52;;;;;;;5.97;4.03;;;;;;;14.04;91.40;102225.66;5345479;27;20031;-73
2022/07/12 02:38:23;;;;;;;5.17;3.87;;;;;;;13.97;91.71;102223.94;5344206;28;20041;-74
2022/07/12 02:40:55;;;;;;;6.20;3.83;;;;;;;13.88;92.03;102222.22;5345952;27;20028;-74
2022/07/12 02:43:29;;;;;;;5.82;4.28;;;;;;;13.79;92.29;102222.25;5345561;27;20103;-74
2022/07/12 02:46:09;;;;;;;5.13;4.28;;;;;;;13.74;92.55;102221.41;5345340;27;20033;-75
2022/07/12 02:48:41;;;;;;;7.70;4.57;;;;;;;13.70;92.57;102222.25;5345611;28;20427;-74
2022/07/12 02:51:13;;;;;;;6.85;4.20;;;;;;;13.79;92.71;102228.34;5348343;27;20127;-74
2022/07/12 02:53:44;;;;;;;5.68;4.25;;;;;;;13.82;92.49;102222.25;5348359;27;20034;-74
2022/07/12 02:56:15;;;;;;;4.83;3.93;;;;;;;13.65;92.48;102223.16;5348076;27;20039;-74
2022/07/12 02:58:47;;;;;;;7.50;4.30;;;;;;;13.72;92.58;102229.25;5349376;27;20042;-74
2022/07/12 03:01:18;;;;;;;6.03;4.67;;;;;;;13.63;92.87;102224.03;5347722;27;20055;-74
2022/07/12 03:03:50;;;;;;;5.30;4.73;;;;;;;13.58;93.22;102231.03;5347544;27;20031;-74
2022/07/12 03:06:21;;;;;;;6.80;4.77;;;;;;;13.70;93.30;102222.25;5349366;27;20059;-74
2022/07/12 03:08:52;;;;;;;5.50;4.53;;;;;;;13.76;93.11;102222.25;5349239;27;20027;-74
2022/07/12 03:11:24;;;;;;;5.43;4.17;;;;;;;13.81;92.80;102215.25;5348915;27;20050;-74
2022/07/12 03:13:55;;;;;;;8.63;4.60;;;;;;;13.56;93.62;102215.31;5348970;27;20042;-74
2022/07/12 03:16:27;;;;;;;6.03;4.87;;;;;;;13.61;93.46;102216.19;5347785;27;20116;-75
2022/07/12 03:18:58;;;;;;;6.23;4.57;;;;;;;13.55;93.73;102217.94;5349338;27;20038;-74
2022/07/12 03:21:30;;;;;;;7.70;5.20;;;;;;;13.46;93.83;102217.09;5349004;27;20038;-75
2022/07/12 03:24:01;;;;;;;6.65;4.57;;;;;;;13.47;94.15;102217.94;5348690;27;20027;-76
2022/07/12 03:26:33;;;;;;;5.87;5.27;;;;;;;13.46;94.36;102222.31;5347714;27;20035;-75
2022/07/12 03:29:05;;;;;;;6.20;5.10;;;;;;;13.45;94.80;102215.34;5348637;27;20483;-75
2022/07/12 03:31:37;;;;;;;8.90;6.13;;;;;;;13.45;95.16;102214.47;5348663;27;20026;-75
2022/07/12 03:34:09;;;;;;;7.40;5.30;;;;;;;13.57;95.15;102218.81;5348459;27;20039;-74
2022/07/12 03:36:40;;;;;;;6.50;5.30;;;;;;;13.46;95.17;102214.47;5348586;27;20024;-75
2022/07/12 03:39:12;;;;;;;7.60;5.33;;;;;;;13.43;95.81;102219.72;5348447;27;20035;-75
2022/07/12 03:41:43;;;;;;;9.53;6.10;;;;;;;13.48;95.90;102219.72;5348546;27;20043;-75
2022/07/12 03:44:14;;;;;;;8.33;6.50;;;;;;;13.60;96.54;102222.28;5348563;27;20027;-75
2022/07/12 03:46:47;;;;;;;7.50;6.33;;;;;;;13.45;96.41;102222.34;5346887;27;20118;-74
2022/07/12 03:49:18;;;;;;;6.80;6.18;;;;;;;13.58;96.55;102224.03;5348054;27;20544;-74
2022/07/12 03:51:49;;;;;;;8.07;6.33;;;;;;;13.50;96.27;102223.19;5348275;27;20121;-74
2022/07/12 03:54:21;;;;;;;7.90;6.07;;;;;;;13.52;96.51;102224.06;5348412;27;20028;-74
2022/07/12 03:59:43;;;;;;;7.85;6.03;;;;;;;13.53;96.68;102231.03;5348219;27;20394;-74
2022/07/12 04:02:15;;;;;;;8.18;7.40;;;;;;;13.49;96.98;102221.44;5347830;27;20489;-73
2022/07/12 04:04:46;;;;;;;7.03;6.33;;;;;;;13.51;97.05;102222.31;5347441;27;20106;-74
2022/07/12 04:07:19;;;;;;;8.50;7.07;;;;;;;13.59;97.07;102217.06;5347868;27;20023;-74
2022/07/12 04:09:50;;;;;;;8.63;7.60;;;;;;;13.64;97.32;102215.31;5347934;27;20269;-74
2022/07/12 04:12:21;;;;;;;8.63;7.53;;;;;;;13.60;97.66;102214.41;5347701;27;20058;-74
2022/07/12 04:14:53;;;;;;;8.00;7.20;;;;;;;13.73;97.80;102207.41;5347028;27;20436;-74
2022/07/12 04:17:24;;;;;;;9.20;8.30;;;;;;;13.70;98.62;102215.28;5349072;27;20436;-74
2022/07/12 04:19:56;;;;;;;8.90;7.97;;;;;;;13.76;98.63;102222.25;5348750;27;20118;-74
2022/07/12 04:22:28;;;;;;;8.70;7.88;;;;;;;13.76;98.69;102223.13;5348438;27;20054;-75
2022/07/12 04:25:00;;;;;;;8.65;7.75;;;;;;;13.90;99.03;102225.69;5359228;27;20031;-75
2022/07/12 04:27:31;;;;;;;8.83;7.80;;;;;;;13.94;98.65;102229.19;5359528;27;20051;-74
2022/07/12 04:30:03;;;;;;;9.73;8.83;;;;;;;14.01;98.58;102233.53;5360994;27;20072;-74
2022/07/12 04:32:35;;;;;;;7.78;7.07;;;;;;;14.00;97.38;102234.41;5350327;27;20389;-75
2022/07/12 04:35:07;;;;;;;9.37;7.57;;;;;;;14.03;97.11;102232.63;5348251;27;20038;-75
2022/07/12 04:37:38;;;;;;;7.78;7.07;;;;;;;14.01;97.98;102230.91;5347433;27;20035;-74
2022/07/12 04:40:10;;;;;;;8.73;7.83;;;;;;;14.02;98.38;102238.78;5346892;27;20496;-75
2022/07/12 04:42:42;;;;;;;9.77;8.88;;;;;;;14.02;99.07;102240.50;5347374;27;20088;-75
2022/07/12 04:45:13;;;;;;;11.90;9.67;;;;;;;14.08;99.36;102237.88;5346736;27;20031;-75
2022/07/12 04:47:44;;;;;;;9.63;8.73;;;;;;;14.18;99.75;102234.34;5347571;27;20031;-74
2022/07/12 04:50:16;;;;;;;10.93;9.93;;;;;;;14.19;99.52;102235.19;5347783;27;20205;-75
2022/07/12 04:52:47;;;;;;;11.10;10.10;;;;;;;14.24;99.13;102238.66;5346527;27;20035;-74
2022/07/12 04:55:19;;;;;;;10.93;9.63;;;;;;;14.33;100.00;102240.38;5348073;27;20080;-75
2022/07/12 04:57:50;;;;;;;9.87;8.97;;;;;;;14.40;99.69;102242.09;5349435;27;20481;-75
2022/07/12 05:00:22;;;;;;;9.50;8.70;;;;;;;14.47;99.85;102243.78;5348167;27;20031;-75
2022/07/12 05:02:53;;;;;;;10.10;9.18;;;;;;;14.56;99.61;102238.50;5347917;27;20027;-75
2022/07/12 05:05:25;;;;;;;10.07;9.07;;;;;;;14.63;99.26;102233.25;5346082;27;20138;-75
2022/07/12 05:07:56;;;;;;;10.90;9.70;;;;;;;14.74;99.00;102239.28;5346036;27;20424;-75
2022/07/12 05:10:27;;;;;;;12.63;10.83;;;;;;;14.90;99.13;102238.28;5347312;27;20466;-75
2022/07/12 05:12:59;;;;;;;12.83;11.73;;;;;;;15.06;99.67;102251.31;5347283;27;20576;-76
2022/07/12 05:15:30;;;;;;;13.87;12.67;;;;;;;15.24;99.26;102253.75;5347083;27;20030;-74
2022/07/12 05:18:02;;;;;;;14.03;12.83;;;;;;;15.38;99.14;102252.78;5347234;27;20426;-75
2022/07/12 05:20:33;;;;;;;13.70;12.33;;;;;;;15.49;99.11;102254.41;5346459;27;20039;-74
2022/07/12 05:23:04;;;;;;;14.03;12.80;;;;;;;15.63;98.25;102259.56;5347087;27;20481;-75
2022/07/12 05:25:36;;;;;;;14.97;13.23;;;;;;;15.78;96.90;102265.56;5347005;27;20031;-76
2022/07/12 05:28:08;;;;;;;15.00;13.60;;;;;;;15.88;96.62;102267.19;5346761;27;20383;-75
2022/07/12 05:30:39;;;;;;;15.63;14.27;;;;;;;15.98;96.49;102279.34;5347162;27;20046;-76
2022/07/12 05:33:12;;;;;;;14.60;12.97;;;;;;;16.07;95.65;102278.38;5347084;27;20029;-76
2022/07/12 05:35:43;;;;;;;14.35;12.82;;;;;;;16.13;95.54;102285.31;5347007;27;20047;-75
2022/07/12 05:38:14;;;;;;;15.53;13.30;;;;;;;16.25;94.84;102289.56;5347294;27;20027;-76
2022/07/12 05:40:46;;;;;;;14.70;13.30;;;;;;;16.37;94.72;102285.03;5346614;28;20028;-75
2022/07/12 05:43:17;;;;;;;13.37;12.07;;;;;;;16.53;93.40;102295.34;5348080;27;20046;-76
2022/07/12 05:45:49;;;;;;;14.13;12.83;;;;;;;16.56;93.84;102296.16;5345785;28;20035;-76
2022/07/12 05:48:20;;;;;;;14.17;12.60;;;;;;;16.66;93.07;102302.16;5345378;28;20031;-76
2022/07/12 05:50:52;;;;;;;16.17;13.93;;;;;;;16.83;91.96;102301.06;5346696;27;20067;-76
2022/07/12 05:53:23;;;;;;;15.05;12.13;;;;;;;16.92;91.47;102298.31;5345636;28;20035;-76
2022/07/12 05:55:55;;;;;;;16.60;11.43;;;;;;;17.03;91.04;102304.28;5346670;27;20084;-76
2022/07/12 05:58:26;;;;;;;13.57;12.27;;;;;;;17.25;90.27;102309.22;5346616;27;20367;-76
2022/07/12 06:00:57;;;;;;;14.53;12.17;;;;;;;17.34;89.22;102317.00;5346437;27;20069;-76
2022/07/12 06:03:29;;;;;;;13.97;12.50;;;;;;;17.33;89.68;102307.34;5345585;28;20491;-76
2022/07/12 06:06:00;;;;;;;12.10;11.00;;;;;;;17.48;89.41;102308.81;5346169;27;20068;-76
2022/07/12 06:08:31;;;;;;;12.27;11.17;;;;;;;17.63;87.69;102310.34;5346777;27;20039;-76
2022/07/12 06:11:03;;;;;;;14.17;12.27;;;;;;;17.65;86.71;102316.47;5346353;27;20127;-76
2022/07/12 06:13:34;;;;;;;12.67;11.37;;;;;;;17.71;87.10;102315.47;5346624;27;20027;-76
2022/07/12 06:16:06;;;;;;;14.00;12.57;;;;;;;17.84;86.34;102323.13;5345158;28;20031;-76
2022/07/12 06:18:38;;;;;;;14.20;12.15;;;;;;;17.93;86.10;102318.59;5346242;27;20041;-76
2022/07/12 06:21:09;;;;;;;12.60;11.50;;;;;;;18.01;85.53;102319.31;5346348;27;20454;-75
2022/07/12 06:23:40;;;;;;;15.00;11.57;;;;;;;18.25;86.25;102328.53;5346258;27;20081;-76
2022/07/12 06:26:12;;;;;;;11.23;10.00;;;;;;;18.40;83.18;102327.31;5348022;27;20057;-76
2022/07/12 06:28:43;;;;;;;11.13;10.13;;;;;;;18.65;82.39;102324.19;5350021;27;20051;-73
2022/07/12 06:31:15;;;;;;;9.63;8.63;;;;;;;18.83;81.66;102328.19;5350093;27;20377;-76
2022/07/12 06:33:46;;;;;;;12.17;10.47;;;;;;;18.92;80.44;102320.06;5332018;27;20484;-74
2022/07/12 06:36:18;;;;;;;21.10;9.73;;;;;;;19.02;81.37;102318.94;5349692;27;20034;-74
2022/07/12 06:38:49;;;;;;;14.23;9.93;;;;;;;19.04;81.83;102319.75;5350275;27;20035;-75
2022/07/12 06:41:21;;;;;;;11.83;9.63;;;;;;;19.18;81.24;102319.44;5350226;27;20027;-76
2022/07/12 06:43:52;;;;;;;17.40;10.37;;;;;;;19.37;79.29;102321.63;5350036;27;20147;-76
2022/07/12 06:46:23;;;;;;;12.17;10.90;;;;;;;19.49;78.61;102326.59;5349663;27;20027;-73
2022/07/12 06:48:55;;;;;;;11.90;10.70;;;;;;;19.47;79.84;102323.13;5349749;27;20388;-74
2022/07/12 06:51:26;;;;;;;12.47;11.13;;;;;;;19.55;78.75;102328.25;5349788;27;20420;-74
2022/07/12 06:53:57;;;;;;;14.97;10.93;;;;;;;19.57;78.35;102329.06;5349966;27;20367;-75
2022/07/12 06:56:29;;;;;;;12.60;10.13;;;;;;;19.72;76.69;102327.78;5348585;27;20386;-75
2022/07/12 06:59:00;;;;;;;11.17;9.80;;;;;;;19.75;76.89;102333.00;5349711;27;20080;-75
2022/07/12 07:01:31;;;;;;;12.90;10.10;;;;;;;19.80;77.21;102324.06;5350062;27;20031;-75
2022/07/12 07:04:03;;;;;;;11.90;10.63;;;;;;;19.82;77.84;102324.88;5349578;27;20057;-73
2022/07/12 07:06:35;;;;;;;11.10;10.10;;;;;;;19.94;77.34;102321.03;5352594;27;20027;-75
2022/07/12 07:09:09;;;;;;;12.43;9.90;;;;;;;20.01;76.62;102333.19;5352860;27;20076;-74
2022/07/12 07:11:41;;;;;;;10.40;8.30;;;;;;;20.13;75.27;102326.69;5354624;27;20031;-74
2022/07/12 07:14:13;;;;;;;9.68;8.77;;;;;;;20.30;74.33;102331.50;5350012;27;20106;-74
2022/07/12 07:16:44;;;;;;;9.40;8.53;;;;;;;20.40;74.26;102329.44;5349268;27;20114;-74
2022/07/12 07:19:16;;;;;;;10.30;8.53;;;;;;;20.54;71.87;102324.63;5349288;27;20359;-75
2022/07/12 07:21:47;;;;;;;10.43;8.27;;;;;;;20.65;72.05;102326.94;5349084;27;20039;-75
2022/07/12 07:24:18;;;;;;;10.73;7.97;;;;;;;20.90;72.29;102327.06;5349460;27;20027;-75
2022/07/12 07:26:50;;;;;;;11.33;8.07;;;;;;;21.02;70.50;102319.63;5348806;27;20043;-75
2022/07/12 07:32:12;;;;;;;15.85;7.50;;;;;;;21.34;68.61;102331.81;5349181;27;20035;-75
2022/07/12 07:34:43;;;;;;;9.47;6.87;;;;;;;21.43;68.26;102325.31;5348494;27;20027;-75
2022/07/12 07:37:14;;;;;;;9.93;7.30;;;;;;;21.34;66.99;102329.16;5346843;27;20534;-75
2022/07/12 07:39:46;;;;;;;6.53;5.83;;;;;;;21.41;67.78;102328.06;5349577;27;20031;-75
2022/07/12 07:42:17;;;;;;;8.33;6.30;;;;;;;21.50;67.48;102321.59;5349700;27;20449;-74
2022/07/12 07:44:49;;;;;;;6.93;6.07;;;;;;;21.52;66.72;102325.06;5348662;27;20091;-75
2022/07/12 07:47:20;;;;;;;7.80;5.33;;;;;;;21.45;66.38;102319.06;5348451;27;20059;-75
2022/07/12 07:49:55;;;;;;;9.73;5.87;;;;;;;21.46;65.98;102326.13;5347703;27;20423;-75
2022/07/12 07:52:26;;;;;;;7.65;5.15;;;;;;;21.41;66.32;102316.56;5354661;27;20486;-74
2022/07/12 07:54:58;;;;;;;6.40;5.40;;;;;;;21.40;66.05;102317.50;5354143;27;20044;-74
2022/07/12 07:57:29;;;;;;;5.77;4.20;;;;;;;21.58;65.56;102316.03;5348438;27;20088;-74
2022/07/12 08:00:01;;;;;;;22.87;5.90;;;;;;;21.70;63.88;102317.38;5347283;27;20027;-75
2022/07/12 08:02:32;;;;;;;29.02;6.85;;;;;;;21.77;63.19;102317.13;5347069;27;20106;-74
2022/07/12 08:05:04;;;;;;;35.60;8.27;;;;;;;21.92;64.05;102317.47;5346520;27;20122;-74
2022/07/12 08:07:35;;;;;;;9.27;4.82;;;;;;;21.97;63.47;102321.69;5348099;27;20038;-76
2022/07/12 08:10:07;;;;;;;5.80;4.33;;;;;;;21.91;64.22;102319.28;5348163;27;20382;-75
2022/07/12 08:12:38;;;;;;;3.90;3.40;;;;;;;22.14;63.69;102321.09;5347803;27;20089;-74
2022/07/12 08:15:10;;;;;;;7.03;4.50;;;;;;;22.21;62.19;102324.38;5348040;27;20031;-75
2022/07/12 08:17:42;;;;;;;14.57;5.45;;;;;;;22.32;60.61;102322.22;5346442;27;20500;-74
2022/07/12 08:20:13;;;;;;;4.83;4.23;;;;;;;22.46;60.45;102327.00;5347849;27;20042;-75
2022/07/12 08:22:45;;;;;;;10.70;6.40;;;;;;;22.54;59.99;102324.91;5347811;27;20062;-75
2022/07/12 08:25:18;;;;;;;15.20;5.43;;;;;;;22.70;59.90;102326.97;5347750;27;20116;-75
2022/07/12 08:27:49;;;;;;;8.00;5.15;;;;;;;22.83;58.39;102322.91;5347319;27;20051;-75
2022/07/12 08:30:21;;;;;;;9.87;4.73;;;;;;;22.81;58.58;102322.09;5347882;27;20031;-75
2022/07/12 08:32:54;;;;;;;9.20;5.13;;;;;;;23.03;58.25;102335.38;5347727;27;20085;-74
2022/07/12 08:35:26;;;;;;;6.22;5.20;;;;;;;23.16;57.77;102327.81;5352898;27;20031;-74
2022/07/12 08:37:57;;;;;;;13.67;4.60;;;;;;;23.31;56.86;102334.25;5351066;27;20515;-75
2022/07/12 08:40:28;;;;;;;6.37;3.90;;;;;;;22.89;57.98;102333.31;5347296;27;20031;-73
2022/07/12 08:43:00;;;;;;;6.23;4.13;;;;;;;22.75;57.98;102335.66;5347160;27;20027;-73
2022/07/12 08:45:31;;;;;;;7.40;4.40;;;;;;;22.56;59.28;102330.19;5347202;27;20023;-73
2022/07/12 08:48:03;;;;;;;7.53;4.97;;;;;;;22.70;58.85;102335.81;5346578;27;20065;-75
2022/07/12 08:50:35;;;;;;;5.57;3.83;;;;;;;22.77;61.39;102336.44;5346854;27;20035;-74
2022/07/12 08:53:10;;;;;;;;;;;;;;;23.04;58.32;102342.44;5347299;27;20027;-75
2022/07/12 08:55:41;;;;;;;5.30;4.18;;;;;;;22.64;58.68;102344.03;5346792;27;20399;-75
2022/07/12 08:58:18;;;;;;;7.32;4.65;;;;;;;22.76;58.33;102348.00;5346818;27;20086;-74
2022/07/12 09:00:50;;;;;;;6.00;3.88;;;;;;;22.82;59.28;102342.44;5349654;27;20027;-74
2022/07/12 09:03:21;;;;;;;7.07;4.00;;;;;;;22.87;57.88;102340.44;5355217;27;20042;-75
2022/07/12 09:05:55;;;;;;;7.93;4.68;;;;;;;22.76;57.34;102346.22;5347214;27;20027;-74
2022/07/12 09:08:34;;;;;;;6.78;3.90;;;;;;;23.05;57.78;102343.31;5346682;27;20473;-75
2022/07/12 09:11:05;;;;;;;5.03;4.00;;;;;;;23.34;55.84;102347.44;5345828;27;20035;-75
2022/07/12 09:13:54;;;;;;;5.57;4.20;;;;;;;23.43;54.94;102341.75;5346688;27;20031;-75
2022/07/12 09:16:26;;;;;;;4.85;3.60;;;;;;;23.44;56.35;102337.28;5346553;27;20038;-76
2022/07/12 09:19:11;;;;;;;;;;;;;;;23.78;57.32;102343.81;5347005;27;20030;-75
2022/07/12 09:21:51;;;;;;;6.85;3.70;;;;;;;23.81;56.83;102333.91;5346737;27;19907;-75
2022/07/12 09:24:27;;;;;;;4.85;3.50;;;;;;;23.90;54.62;102343.31;5346667;27;20038;-75
2022/07/12 09:27:05;;;;;;;4.63;3.92;;;;;;;24.05;54.89;102343.56;5345938;27;20079;-75
2022/07/12 09:29:47;;;;;;;4.82;4.03;;;;;;;24.19;55.29;102341.13;5346625;27;20095;-75
2022/07/12 09:38:09;;;;;;;6.72;4.30;;;;;;;24.69;52.35;102329.94;5346596;27;20382;-75
2022/07/12 09:40:41;;;;;;;;;;;;;;;25.17;54.03;102326.75;5346681;27;20034;-75
2022/07/12 09:43:14;;;;;;;4.37;3.30;;;;;;;25.15;49.87;102325.94;5346190;27;20349;-76
2022/07/12 09:45:48;;;;;;;4.22;3.80;;;;;;;25.42;50.89;102337.06;5346308;27;20126;-75
2022/07/12 09:48:21;;;;;;;6.07;4.45;;;;;;;25.58;51.29;102334.47;5345101;28;20039;-75
2022/07/12 09:50:52;;;;;;;;;;;;;;;26.10;51.50;102326.41;5346894;27;20066;-76
2022/07/12 09:53:28;;;;;;;5.57;3.40;;;;;;;26.05;50.43;102319.56;5346676;28;20330;-75
2022/07/12 09:56:06;;;;;;;6.07;3.88;;;;;;;26.24;50.20;102328.31;5345157;28;20027;-76
2022/07/12 09:58:53;;;;;;;4.90;3.47;;;;;;;26.53;50.42;102326.72;5348112;28;20041;-76
2022/07/12 10:01:25;;;;;;;4.80;4.10;;;;;;;26.41;49.06;102324.72;5351019;27;20031;-75
2022/07/12 10:04:00;;;;;;;4.95;3.40;;;;;;;26.36;47.55;102321.44;5350690;27;20076;-75
2022/07/12 10:06:31;;;;;;;4.03;3.03;;;;;;;26.83;48.93;102312.56;5350057;27;20023;-75
2022/07/12 10:09:05;;;;;;;5.55;3.50;;;;;;;27.60;46.68;102320.59;5350231;27;20106;-75
2022/07/12 10:11:38;;;;;;;4.07;3.20;;;;;;;28.86;43.21;102318.00;5350489;27;20047;-75
2022/07/12 10:14:12;;;;;;;6.38;3.53;;;;;;;29.95;42.57;102308.84;5350425;27;20039;-76
2022/07/12 10:16:45;;;;;;;3.90;3.13;;;;;;;31.05;37.92;102307.97;5351640;27;20031;-74
2022/07/12 10:19:32;;;;;;;5.70;3.53;;;;;;;31.66;39.37;102304.22;5351903;27;20062;-75
2022/07/12 10:22:06;;;;;;;5.07;2.63;;;;;;;32.30;35.89;102306.31;5350870;27;20035;-75
2022/07/12 10:24:44;;;;;;;5.03;2.65;;;;;;;32.60;35.52;102304.75;5350293;27;20035;-75
2022/07/12 10:27:16;;;;;;;5.78;2.80;;;;;;;31.96;34.76;102306.31;5358978;27;20047;-74
2022/07/12 10:29:49;;;;;;;4.40;3.33;;;;;;;32.04;34.21;102302.13;5367900;27;20050;-75
2022/07/12 10:32:25;;;;;;;6.25;3.45;;;;;;;32.34;34.86;102302.34;5370706;27;20261;-76
2022/07/12 10:35:11;;;;;;;4.50;3.28;;;;;;;32.84;35.09;102301.00;5365608;27;20042;-76
2022/07/12 10:38:11;;;;;;;4.53;3.75;;;;;;;34.54;33.68;102303.34;5352698;27;20034;-75
2022/07/12 10:40:45;;;;;;;3.65;2.80;;;;;;;34.58;31.47;102298.50;5351646;27;20035;-76
2022/07/12 10:43:19;;;;;;;7.40;2.80;;;;;;;34.21;30.66;102304.53;5349609;27;20034;-75
2022/07/12 10:45:51;;;;;;;5.07;3.75;;;;;;;32.91;30.95;102299.53;5350539;27;20076;-77
2022/07/12 10:48:23;;;;;;;4.70;4.05;;;;;;;32.16;32.96;102304.72;5349233;27;20096;-75
2022/07/12 10:50:56;;;;;;;5.78;4.40;;;;;;;32.32;33.32;102290.00;5353845;27;20045;-76
2022/07/12 10:53:30;;;;;;;4.45;3.88;;;;;;;32.74;33.31;102291.97;5352364;27;20031;-75
2022/07/12 10:56:14;;;;;;;4.63;3.78;;;;;;;33.30;33.73;102294.44;5359448;27;20062;-76
2022/07/12 10:58:49;;;;;;;4.13;3.35;;;;;;;34.68;30.55;102293.94;5358211;27;20122;-75
2022/07/12 11:01:28;;;;;;;6.22;3.60;;;;;;;34.16;30.98;102294.09;5350839;27;20102;-74
2022/07/12 11:04:06;;;;;;;7.38;3.55;;;;;;;33.90;32.81;102297.31;5349922;27;20500;-75
2022/07/12 11:06:39;;;;;;;9.77;3.70;;;;;;;32.70;30.84;102302.16;5349911;27;20098;-74
2022/07/12 11:09:12;;;;;;;3.85;2.65;;;;;;;32.85;32.80;102302.75;5348042;27;20367;-76
2022/07/12 11:11:48;;;;;;;5.75;2.72;;;;;;;32.70;31.64;102297.63;5348802;27;20063;-75
2022/07/12 11:14:34;;;;;;;3.10;2.60;;;;;;;32.86;30.42;102296.34;5349555;27;20137;-75
2022/07/12 11:17:05;;;;;;;5.30;2.92;;;;;;;34.69;29.02;102285.66;5349458;27;20028;-76
2022/07/12 11:19:37;;;;;;;11.65;3.38;;;;;;;35.48;27.79;102291.88;5349251;27;20035;-77
2022/07/12 11:22:08;;;;;;;3.50;2.70;;;;;;;35.10;26.98;102288.25;5349469;27;20102;-76
2022/07/12 11:24:40;;;;;;;3.30;2.80;;;;;;;35.35;27.22;102291.34;5349508;27;20373;-75
2022/07/12 11:27:13;;;;;;;3.42;2.55;;;;;;;36.56;25.95;102294.91;5349334;27;20095;-75
2022/07/12 11:30:00;;;;;;;6.72;3.03;;;;;;;37.03;27.09;102289.25;5349143;27;20035;-76
2022/07/12 11:32:37;;;;;;;4.70;2.83;;;;;;;36.94;26.84;102283.91;5349298;27;20127;-76
2022/07/12 11:35:19;;;;;;;6.80;3.15;;;;;;;37.94;26.28;102266.16;5348783;27;20070;-77
2022/07/12 11:37:57;;;;;;;7.72;3.47;;;;;;;37.06;26.92;102266.31;5348992;27;20027;-76
2022/07/12 11:40:30;;;;;;;3.55;2.83;;;;;;;37.29;24.95;102272.13;5349258;27;20126;-77
2022/07/12 11:43:04;;;;;;;4.82;3.15;;;;;;;36.65;26.42;102274.13;5348906;27;20114;-77
2022/07/12 11:45:36;;;;;;;5.05;3.47;;;;;;;35.78;24.92;102269.09;5348963;27;20054;-76
2022/07/12 11:48:07;;;;;;;4.35;3.00;;;;;;;35.35;27.36;102258.81;5348978;27;20032;-76
2022/07/12 11:50:44;;;;;;;6.32;3.65;;;;;;;34.96;27.51;102267.88;5348662;27;20027;-76
2022/07/12 11:53:26;;;;;;;4.07;2.92;;;;;;;36.46;28.02;102280.56;5348571;27;20038;-77
2022/07/12 11:55:59;;;;;;;4.82;2.72;;;;;;;37.03;25.34;102278.38;5348517;27;20094;-77
2022/07/12 11:58:32;;;;;;;4.05;2.50;;;;;;;38.21;25.61;102275.13;5348406;27;20023;-76